sensor_id;sensor_type;location;lat;lon;timestamp;P1;durP1;ratioP1;P2;durP2;ratioP2
58760;SDS011;44529;47.464;19.014;2022-08-11T00:00:35;3.97;;;2.05;;
58760;SDS011;44529;47.464;19.014;2022-08-11T00:03:55;3.92;;;2.28;;
58760;SDS011;44529;47.464;19.014;2022-08-11T00:07:03;2.28;;;1.85;;
58760;SDS011;44529;47.464;19.014;2022-08-11T00:10:09;4.87;;;1.92;;
58760;SDS011;44529;47.464;19.014;2022-08-11T00:13:16;2.08;;;1.98;;
58760;SDS011;44529;47.464;19.014;2022-08-11T00:16:21;2.58;;;1.73;;
58760;SDS011;44529;47.464;19.014;2022-08-11T00:19:26;2.95;;;1.85;;
58760;SDS011;44529;47.464;19.014;2022-08-11T00:22:51;1.98;;;1.67;;
58760;SDS011;44529;47.464;19.014;2022-08-11T00:25:54;3.05;;;1.73;;
58760;SDS011;44529;47.464;19.014;2022-08-11T00:29:06;2.00;;;1.90;;
58760;SDS011;44529;47.464;19.014;2022-08-11T00:32:12;2.00;;;1.70;;
58760;SDS011;44529;47.464;19.014;2022-08-11T00:35:16;3.47;;;1.95;;
58760;SDS011;44529;47.464;19.014;2022-08-11T00:38:39;3.83;;;1.90;;
58760;SDS011;44529;47.464;19.014;2022-08-11T00:45:02;4.85;;;1.80;;
58760;SDS011;44529;47.464;19.014;2022-08-11T00:48:24;2.28;;;2.05;;
58760;SDS011;44529;47.464;19.014;2022-08-11T01:36:18;1.87;;;1.73;;
58760;SDS011;44529;47.464;19.014;2022-08-11T02:11:35;2.10;;;1.48;;
58760;SDS011;44529;47.464;19.014;2022-08-11T02:14:43;1.92;;;1.83;;
58760;SDS011;44529;47.464;19.014;2022-08-11T02:21:55;2.53;;;1.73;;
58760;SDS011;44529;47.464;19.014;2022-08-11T02:25:26;2.50;;;1.85;;
58760;SDS011;44529;47.464;19.014;2022-08-11T02:39:02;1.62;;;1.35;;
58760;SDS011;44529;47.464;19.014;2022-08-11T02:42:15;1.92;;;1.73;;
58760;SDS011;44529;47.464;19.014;2022-08-11T02:49:04;1.65;;;1.55;;
58760;SDS011;44529;47.464;19.014;2022-08-11T03:02:57;2.62;;;1.48;;
58760;SDS011;44529;47.464;19.014;2022-08-11T03:06:08;2.40;;;1.65;;
58760;SDS011;44529;47.464;19.014;2022-08-11T03:16:36;2.35;;;1.55;;
58760;SDS011;44529;47.464;19.014;2022-08-11T03:23:17;2.05;;;1.60;;
58760;SDS011;44529;47.464;19.014;2022-08-11T03:33:32;2.78;;;1.48;;
58760;SDS011;44529;47.464;19.014;2022-08-11T03:44:46;4.10;;;1.48;;
58760;SDS011;44529;47.464;19.014;2022-08-11T03:48:08;2.55;;;1.62;;
58760;SDS011;44529;47.464;19.014;2022-08-11T03:51:19;1.75;;;1.40;;
58760;SDS011;44529;47.464;19.014;2022-08-11T04:05:45;4.03;;;1.60;;
58760;SDS011;44529;47.464;19.014;2022-08-11T04:26:53;4.73;;;1.80;;
58760;SDS011;44529;47.464;19.014;2022-08-11T04:30:33;3.33;;;1.70;;
58760;SDS011;44529;47.464;19.014;2022-08-11T04:37:31;2.83;;;2.03;;
58760;SDS011;44529;47.464;19.014;2022-08-11T05:09:18;5.40;;;1.87;;
58760;SDS011;44529;47.464;19.014;2022-08-11T05:12:34;3.42;;;2.15;;
58760;SDS011;44529;47.464;19.014;2022-08-11T05:16:07;2.92;;;2.08;;
58760;SDS011;44529;47.464;19.014;2022-08-11T05:19:32;3.47;;;2.10;;
58760;SDS011;44529;47.464;19.014;2022-08-11T05:22:53;2.92;;;1.90;;
58760;SDS011;44529;47.464;19.014;2022-08-11T05:26:17;3.40;;;1.62;;
58760;SDS011;44529;47.464;19.014;2022-08-11T05:29:54;2.10;;;1.70;;
58760;SDS011;44529;47.464;19.014;2022-08-11T05:33:29;4.65;;;2.08;;
58760;SDS011;44529;47.464;19.014;2022-08-11T05:37:08;2.45;;;1.90;;
58760;SDS011;44529;47.464;19.014;2022-08-11T05:40:27;5.37;;;2.78;;
58760;SDS011;44529;47.464;19.014;2022-08-11T05:43:52;4.25;;;2.15;;
58760;SDS011;44529;47.464;19.014;2022-08-11T05:47:23;4.70;;;2.30;;
58760;SDS011;44529;47.464;19.014;2022-08-11T05:50:51;6.15;;;1.98;;
58760;SDS011;44529;47.464;19.014;2022-08-11T05:54:17;4.15;;;2.12;;
58760;SDS011;44529;47.464;19.014;2022-08-11T05:57:39;2.50;;;2.25;;
58760;SDS011;44529;47.464;19.014;2022-08-11T06:00:52;7.78;;;2.33;;
58760;SDS011;44529;47.464;19.014;2022-08-11T06:03:56;3.92;;;1.83;;
58760;SDS011;44529;47.464;19.014;2022-08-11T06:10:26;6.20;;;4.47;;
58760;SDS011;44529;47.464;19.014;2022-08-11T06:13:34;2.85;;;2.55;;
58760;SDS011;44529;47.464;19.014;2022-08-11T06:16:39;5.82;;;2.30;;
58760;SDS011;44529;47.464;19.014;2022-08-11T06:19:46;3.60;;;1.92;;
58760;SDS011;44529;47.464;19.014;2022-08-11T06:23:01;6.12;;;2.22;;
58760;SDS011;44529;47.464;19.014;2022-08-11T06:26:08;2.37;;;1.98;;
58760;SDS011;44529;47.464;19.014;2022-08-11T06:29:12;15.55;;;2.72;;
58760;SDS011;44529;47.464;19.014;2022-08-11T06:32:20;11.82;;;2.40;;
58760;SDS011;44529;47.464;19.014;2022-08-11T06:39:04;10.93;;;2.30;;
58760;SDS011;44529;47.464;19.014;2022-08-11T06:42:12;9.20;;;2.80;;
58760;SDS011;44529;47.464;19.014;2022-08-11T06:45:47;8.63;;;2.00;;
58760;SDS011;44529;47.464;19.014;2022-08-11T06:48:50;5.72;;;1.70;;
58760;SDS011;44529;47.464;19.014;2022-08-11T06:51:55;10.85;;;2.20;;
58760;SDS011;44529;47.464;19.014;2022-08-11T06:58:32;7.72;;;2.28;;
58760;SDS011;44529;47.464;19.014;2022-08-11T07:02:06;5.97;;;2.05;;
58760;SDS011;44529;47.464;19.014;2022-08-11T07:05:51;5.82;;;2.22;;
58760;SDS011;44529;47.464;19.014;2022-08-11T07:12:52;4.47;;;1.98;;
58760;SDS011;44529;47.464;19.014;2022-08-11T07:16:38;13.13;;;2.20;;
58760;SDS011;44529;47.464;19.014;2022-08-11T07:19:45;10.52;;;2.00;;
58760;SDS011;44529;47.464;19.014;2022-08-11T07:23:10;7.40;;;2.17;;
58760;SDS011;44529;47.464;19.014;2022-08-11T07:26:33;6.35;;;1.92;;
58760;SDS011;44529;47.464;19.014;2022-08-11T07:29:54;6.15;;;2.03;;
58760;SDS011;44529;47.464;19.014;2022-08-11T07:32:59;5.43;;;1.98;;
58760;SDS011;44529;47.464;19.014;2022-08-11T07:36:04;6.95;;;2.10;;
58760;SDS011;44529;47.464;19.014;2022-08-11T07:39:15;1.77;;;1.60;;
58760;SDS011;44529;47.464;19.014;2022-08-11T07:42:22;6.18;;;1.83;;
58760;SDS011;44529;47.464;19.014;2022-08-11T07:45:29;1.70;;;1.33;;
58760;SDS011;44529;47.464;19.014;2022-08-11T07:48:51;18.60;;;2.25;;
58760;SDS011;44529;47.464;19.014;2022-08-11T07:52:13;9.00;;;1.90;;
58760;SDS011;44529;47.464;19.014;2022-08-11T07:55:29;2.97;;;1.65;;
58760;SDS011;44529;47.464;19.014;2022-08-11T07:58:50;3.42;;;2.33;;
58760;SDS011;44529;47.464;19.014;2022-08-11T08:02:14;6.28;;;2.00;;
58760;SDS011;44529;47.464;19.014;2022-08-11T08:05:35;2.65;;;1.77;;
58760;SDS011;44529;47.464;19.014;2022-08-11T08:08:57;6.10;;;2.42;;
58760;SDS011;44529;47.464;19.014;2022-08-11T08:12:19;1.85;;;1.62;;
58760;SDS011;44529;47.464;19.014;2022-08-11T08:15:42;3.05;;;1.50;;
58760;SDS011;44529;47.464;19.014;2022-08-11T08:19:04;4.60;;;2.03;;
58760;SDS011;44529;47.464;19.014;2022-08-11T08:22:07;5.87;;;1.87;;
58760;SDS011;44529;47.464;19.014;2022-08-11T08:25:31;6.12;;;2.00;;
58760;SDS011;44529;47.464;19.014;2022-08-11T08:28:35;5.22;;;2.03;;
58760;SDS011;44529;47.464;19.014;2022-08-11T08:31:37;5.22;;;1.65;;
58760;SDS011;44529;47.464;19.014;2022-08-11T08:34:40;3.90;;;1.90;;
58760;SDS011;44529;47.464;19.014;2022-08-11T08:37:44;4.22;;;1.67;;
58760;SDS011;44529;47.464;19.014;2022-08-11T08:40:49;3.30;;;1.65;;
58760;SDS011;44529;47.464;19.014;2022-08-11T08:43:58;4.47;;;1.85;;
58760;SDS011;44529;47.464;19.014;2022-08-11T08:47:25;5.40;;;1.60;;
58760;SDS011;44529;47.464;19.014;2022-08-11T08:50:47;4.37;;;1.45;;
58760;SDS011;44529;47.464;19.014;2022-08-11T08:54:35;3.65;;;1.70;;
58760;SDS011;44529;47.464;19.014;2022-08-11T08:57:39;2.95;;;1.60;;
58760;SDS011;44529;47.464;19.014;2022-08-11T09:00:45;4.62;;;2.10;;
58760;SDS011;44529;47.464;19.014;2022-08-11T09:03:51;4.72;;;1.50;;
58760;SDS011;44529;47.464;19.014;2022-08-11T09:07:11;3.80;;;1.70;;
58760;SDS011;44529;47.464;19.014;2022-08-11T09:10:17;3.47;;;1.70;;
58760;SDS011;44529;47.464;19.014;2022-08-11T09:13:21;5.25;;;1.70;;
58760;SDS011;44529;47.464;19.014;2022-08-11T09:16:24;4.40;;;1.67;;
58760;SDS011;44529;47.464;19.014;2022-08-11T09:19:29;5.32;;;1.80;;
58760;SDS011;44529;47.464;19.014;2022-08-11T09:22:36;3.78;;;1.40;;
58760;SDS011;44529;47.464;19.014;2022-08-11T09:26:22;1.50;;;1.40;;
58760;SDS011;44529;47.464;19.014;2022-08-11T09:29:46;2.42;;;1.50;;
58760;SDS011;44529;47.464;19.014;2022-08-11T09:32:54;2.50;;;1.30;;
58760;SDS011;44529;47.464;19.014;2022-08-11T09:36:19;1.13;;;1.03;;
58760;SDS011;44529;47.464;19.014;2022-08-11T09:39:44;4.22;;;1.30;;
58760;SDS011;44529;47.464;19.014;2022-08-11T09:43:09;2.42;;;1.17;;
58760;SDS011;44529;47.464;19.014;2022-08-11T09:46:35;6.12;;;1.27;;
58760;SDS011;44529;47.464;19.014;2022-08-11T09:49:43;5.45;;;1.60;;
58760;SDS011;44529;47.464;19.014;2022-08-11T09:52:51;5.62;;;1.40;;
58760;SDS011;44529;47.464;19.014;2022-08-11T09:56:21;1.55;;;1.30;;
58760;SDS011;44529;47.464;19.014;2022-08-11T09:59:50;2.75;;;1.60;;
58760;SDS011;44529;47.464;19.014;2022-08-11T10:03:15;3.40;;;1.10;;
58760;SDS011;44529;47.464;19.014;2022-08-11T10:06:18;3.75;;;1.35;;
58760;SDS011;44529;47.464;19.014;2022-08-11T10:09:58;2.95;;;1.60;;
58760;SDS011;44529;47.464;19.014;2022-08-11T10:13:04;1.67;;;1.55;;
58760;SDS011;44529;47.464;19.014;2022-08-11T10:16:31;2.80;;;1.40;;
58760;SDS011;44529;47.464;19.014;2022-08-11T10:19:36;5.03;;;1.40;;
58760;SDS011;44529;47.464;19.014;2022-08-11T10:22:40;5.93;;;1.60;;
58760;SDS011;44529;47.464;19.014;2022-08-11T10:26:02;8.50;;;1.67;;
58760;SDS011;44529;47.464;19.014;2022-08-11T10:29:25;1.67;;;1.52;;
58760;SDS011;44529;47.464;19.014;2022-08-11T10:32:52;3.50;;;1.98;;
58760;SDS011;44529;47.464;19.014;2022-08-11T10:36:43;1.20;;;1.10;;
58760;SDS011;44529;47.464;19.014;2022-08-11T10:39:49;2.12;;;1.25;;
58760;SDS011;44529;47.464;19.014;2022-08-11T10:42:57;1.12;;;1.00;;
58760;SDS011;44529;47.464;19.014;2022-08-11T10:46:04;5.45;;;1.40;;
58760;SDS011;44529;47.464;19.014;2022-08-11T10:49:31;2.90;;;1.48;;
58760;SDS011;44529;47.464;19.014;2022-08-11T10:52:35;2.85;;;1.25;;
58760;SDS011;44529;47.464;19.014;2022-08-11T10:55:57;1.65;;;1.27;;
58760;SDS011;44529;47.464;19.014;2022-08-11T10:59:19;1.30;;;1.20;;
58760;SDS011;44529;47.464;19.014;2022-08-11T11:02:24;1.75;;;1.10;;
58760;SDS011;44529;47.464;19.014;2022-08-11T11:05:29;1.50;;;1.15;;
58760;SDS011;44529;47.464;19.014;2022-08-11T11:08:32;6.40;;;1.30;;
58760;SDS011;44529;47.464;19.014;2022-08-11T11:12:06;4.10;;;1.33;;
58760;SDS011;44529;47.464;19.014;2022-08-11T11:15:31;4.20;;;1.58;;
58760;SDS011;44529;47.464;19.014;2022-08-11T11:18:55;3.62;;;1.60;;
58760;SDS011;44529;47.464;19.014;2022-08-11T11:22:02;5.95;;;1.37;;
58760;SDS011;44529;47.464;19.014;2022-08-11T11:36:29;1.77;;;1.30;;
58760;SDS011;44529;47.464;19.014;2022-08-11T11:39:34;1.90;;;1.00;;
58760;SDS011;44529;47.464;19.014;2022-08-11T11:42:38;4.15;;;1.33;;
58760;SDS011;44529;47.464;19.014;2022-08-11T11:45:42;5.80;;;1.45;;
58760;SDS011;44529;47.464;19.014;2022-08-11T11:48:45;3.47;;;1.17;;
58760;SDS011;44529;47.464;19.014;2022-08-11T11:51:49;3.05;;;1.00;;
58760;SDS011;44529;47.464;19.014;2022-08-11T11:54:56;5.05;;;1.30;;
58760;SDS011;44529;47.464;19.014;2022-08-11T11:58:00;1.33;;;1.23;;
58760;SDS011;44529;47.464;19.014;2022-08-11T12:01:23;2.58;;;1.20;;
58760;SDS011;44529;47.464;19.014;2022-08-11T12:04:26;3.05;;;1.00;;
58760;SDS011;44529;47.464;19.014;2022-08-11T12:07:29;2.75;;;1.00;;
58760;SDS011;44529;47.464;19.014;2022-08-11T12:11:07;4.20;;;1.50;;
58760;SDS011;44529;47.464;19.014;2022-08-11T12:14:29;2.55;;;1.30;;
58760;SDS011;44529;47.464;19.014;2022-08-11T12:17:33;1.90;;;1.20;;
58760;SDS011;44529;47.464;19.014;2022-08-11T12:20:37;3.90;;;1.87;;
58760;SDS011;44529;47.464;19.014;2022-08-11T12:23:40;1.92;;;0.93;;
58760;SDS011;44529;47.464;19.014;2022-08-11T12:27:05;1.37;;;1.05;;
58760;SDS011;44529;47.464;19.014;2022-08-11T12:30:27;5.72;;;1.27;;
58760;SDS011;44529;47.464;19.014;2022-08-11T12:33:29;0.88;;;0.88;;
58760;SDS011;44529;47.464;19.014;2022-08-11T12:36:32;4.60;;;1.12;;
58760;SDS011;44529;47.464;19.014;2022-08-11T12:39:43;2.60;;;0.98;;
58760;SDS011;44529;47.464;19.014;2022-08-11T12:43:27;2.87;;;1.37;;
58760;SDS011;44529;47.464;19.014;2022-08-11T12:46:58;4.50;;;1.10;;
58760;SDS011;44529;47.464;19.014;2022-08-11T12:50:03;2.75;;;0.95;;
58760;SDS011;44529;47.464;19.014;2022-08-11T12:53:25;2.87;;;1.45;;
58760;SDS011;44529;47.464;19.014;2022-08-11T12:56:40;3.15;;;0.90;;
58760;SDS011;44529;47.464;19.014;2022-08-11T13:00:04;2.87;;;1.08;;
58760;SDS011;44529;47.464;19.014;2022-08-11T13:03:27;1.95;;;1.10;;
58760;SDS011;44529;47.464;19.014;2022-08-11T13:06:57;1.65;;;0.90;;
58760;SDS011;44529;47.464;19.014;2022-08-11T13:10:00;1.80;;;0.90;;
58760;SDS011;44529;47.464;19.014;2022-08-11T13:13:06;0.82;;;0.82;;
58760;SDS011;44529;47.464;19.014;2022-08-11T13:16:31;5.05;;;1.10;;
58760;SDS011;44529;47.464;19.014;2022-08-11T13:19:58;2.22;;;1.12;;
58760;SDS011;44529;47.464;19.014;2022-08-11T13:23:01;2.65;;;0.93;;
58760;SDS011;44529;47.464;19.014;2022-08-11T13:26:04;2.78;;;0.90;;
58760;SDS011;44529;47.464;19.014;2022-08-11T13:29:09;1.23;;;1.00;;
58760;SDS011;44529;47.464;19.014;2022-08-11T13:32:12;2.58;;;0.98;;
58760;SDS011;44529;47.464;19.014;2022-08-11T13:35:17;6.45;;;1.00;;
58760;SDS011;44529;47.464;19.014;2022-08-11T13:38:20;3.53;;;1.00;;
58760;SDS011;44529;47.464;19.014;2022-08-11T13:41:25;3.70;;;0.90;;
58760;SDS011;44529;47.464;19.014;2022-08-11T13:44:41;1.00;;;1.00;;
58760;SDS011;44529;47.464;19.014;2022-08-11T13:47:45;3.70;;;1.30;;
58760;SDS011;44529;47.464;19.014;2022-08-11T13:50:47;2.95;;;1.02;;
58760;SDS011;44529;47.464;19.014;2022-08-11T13:54:09;1.10;;;1.00;;
58760;SDS011;44529;47.464;19.014;2022-08-11T13:57:16;2.92;;;1.00;;
58760;SDS011;44529;47.464;19.014;2022-08-11T14:00:40;1.98;;;1.42;;
58760;SDS011;44529;47.464;19.014;2022-08-11T14:03:54;2.28;;;1.08;;
58760;SDS011;44529;47.464;19.014;2022-08-11T14:07:20;1.98;;;1.00;;
58760;SDS011;44529;47.464;19.014;2022-08-11T14:10:25;1.20;;;1.10;;
58760;SDS011;44529;47.464;19.014;2022-08-11T14:13:29;6.20;;;0.75;;
58760;SDS011;44529;47.464;19.014;2022-08-11T14:16:49;3.30;;;1.10;;
58760;SDS011;44529;47.464;19.014;2022-08-11T14:19:54;1.00;;;0.90;;
58760;SDS011;44529;47.464;19.014;2022-08-11T14:22:58;2.72;;;1.00;;
58760;SDS011;44529;47.464;19.014;2022-08-11T14:26:01;2.03;;;0.90;;
58760;SDS011;44529;47.464;19.014;2022-08-11T14:29:24;0.90;;;0.90;;
58760;SDS011;44529;47.464;19.014;2022-08-11T14:32:28;1.12;;;0.82;;
58760;SDS011;44529;47.464;19.014;2022-08-11T14:35:31;2.45;;;1.30;;
58760;SDS011;44529;47.464;19.014;2022-08-11T14:38:33;3.17;;;1.05;;
58760;SDS011;44529;47.464;19.014;2022-08-11T14:41:38;0.88;;;0.85;;
58760;SDS011;44529;47.464;19.014;2022-08-11T14:45:14;1.48;;;1.05;;
58760;SDS011;44529;47.464;19.014;2022-08-11T14:48:57;2.22;;;1.15;;
58760;SDS011;44529;47.464;19.014;2022-08-11T14:52:01;2.45;;;1.20;;
58760;SDS011;44529;47.464;19.014;2022-08-11T14:55:07;1.08;;;0.70;;
58760;SDS011;44529;47.464;19.014;2022-08-11T14:58:29;1.02;;;0.90;;
58760;SDS011;44529;47.464;19.014;2022-08-11T15:01:34;3.20;;;1.30;;
58760;SDS011;44529;47.464;19.014;2022-08-11T15:04:57;1.77;;;0.98;;
58760;SDS011;44529;47.464;19.014;2022-08-11T15:08:01;1.55;;;1.00;;
58760;SDS011;44529;47.464;19.014;2022-08-11T15:11:04;2.37;;;1.00;;
58760;SDS011;44529;47.464;19.014;2022-08-11T15:14:26;3.42;;;1.10;;
58760;SDS011;44529;47.464;19.014;2022-08-11T15:17:47;4.22;;;1.12;;
58760;SDS011;44529;47.464;19.014;2022-08-11T15:20:52;2.00;;;0.90;;
58760;SDS011;44529;47.464;19.014;2022-08-11T15:24:13;1.27;;;1.12;;
58760;SDS011;44529;47.464;19.014;2022-08-11T15:27:22;1.45;;;1.10;;
58760;SDS011;44529;47.464;19.014;2022-08-11T15:30:43;2.05;;;0.60;;
58760;SDS011;44529;47.464;19.014;2022-08-11T15:34:07;1.37;;;0.90;;
58760;SDS011;44529;47.464;19.014;2022-08-11T15:37:32;3.20;;;1.12;;
58760;SDS011;44529;47.464;19.014;2022-08-11T15:40:37;1.80;;;0.73;;
58760;SDS011;44529;47.464;19.014;2022-08-11T15:43:59;2.40;;;0.93;;
58760;SDS011;44529;47.464;19.014;2022-08-11T15:47:54;1.85;;;0.77;;
58760;SDS011;44529;47.464;19.014;2022-08-11T15:51:10;1.48;;;1.10;;
58760;SDS011;44529;47.464;19.014;2022-08-11T15:54:18;2.87;;;0.85;;
58760;SDS011;44529;47.464;19.014;2022-08-11T15:57:24;0.98;;;0.90;;
58760;SDS011;44529;47.464;19.014;2022-08-11T16:00:46;1.20;;;0.95;;
58760;SDS011;44529;47.464;19.014;2022-08-11T16:04:13;2.12;;;0.98;;
58760;SDS011;44529;47.464;19.014;2022-08-11T16:07:19;1.02;;;0.90;;
58760;SDS011;44529;47.464;19.014;2022-08-11T16:10:28;1.23;;;1.00;;
58760;SDS011;44529;47.464;19.014;2022-08-11T16:13:35;2.15;;;0.98;;
58760;SDS011;44529;47.464;19.014;2022-08-11T16:16:43;0.80;;;0.80;;
58760;SDS011;44529;47.464;19.014;2022-08-11T16:19:47;3.15;;;0.95;;
58760;SDS011;44529;47.464;19.014;2022-08-11T16:22:53;3.17;;;1.10;;
58760;SDS011;44529;47.464;19.014;2022-08-11T16:26:04;2.70;;;0.90;;
58760;SDS011;44529;47.464;19.014;2022-08-11T16:29:27;1.73;;;1.00;;
58760;SDS011;44529;47.464;19.014;2022-08-11T16:32:33;1.08;;;0.90;;
58760;SDS011;44529;47.464;19.014;2022-08-11T16:35:39;1.27;;;1.05;;
58760;SDS011;44529;47.464;19.014;2022-08-11T16:39:01;2.30;;;1.10;;
58760;SDS011;44529;47.464;19.014;2022-08-11T16:42:04;1.98;;;1.00;;
58760;SDS011;44529;47.464;19.014;2022-08-11T16:45:45;3.22;;;1.08;;
58760;SDS011;44529;47.464;19.014;2022-08-11T16:49:15;3.22;;;0.77;;
58760;SDS011;44529;47.464;19.014;2022-08-11T16:52:20;5.60;;;1.10;;
58760;SDS011;44529;47.464;19.014;2022-08-11T16:55:24;1.48;;;1.20;;
58760;SDS011;44529;47.464;19.014;2022-08-11T16:58:51;1.30;;;1.15;;
58760;SDS011;44529;47.464;19.014;2022-08-11T17:02:16;1.00;;;0.90;;
58760;SDS011;44529;47.464;19.014;2022-08-11T17:05:41;4.50;;;1.10;;
58760;SDS011;44529;47.464;19.014;2022-08-11T17:09:07;2.15;;;1.10;;
58760;SDS011;44529;47.464;19.014;2022-08-11T17:12:30;1.42;;;0.80;;
58760;SDS011;44529;47.464;19.014;2022-08-11T17:15:55;1.20;;;1.10;;
58760;SDS011;44529;47.464;19.014;2022-08-11T17:19:11;2.12;;;1.20;;
58760;SDS011;44529;47.464;19.014;2022-08-11T17:22:15;6.15;;;1.50;;
58760;SDS011;44529;47.464;19.014;2022-08-11T17:25:38;6.53;;;1.48;;
58760;SDS011;44529;47.464;19.014;2022-08-11T17:29:02;9.95;;;1.70;;
58760;SDS011;44529;47.464;19.014;2022-08-11T17:32:10;10.98;;;1.40;;
58760;SDS011;44529;47.464;19.014;2022-08-11T17:35:54;5.30;;;1.45;;
58760;SDS011;44529;47.464;19.014;2022-08-11T17:38:56;3.20;;;1.42;;
58760;SDS011;44529;47.464;19.014;2022-08-11T17:41:59;4.28;;;1.23;;
58760;SDS011;44529;47.464;19.014;2022-08-11T17:45:21;7.10;;;1.50;;
58760;SDS011;44529;47.464;19.014;2022-08-11T17:48:57;3.03;;;1.20;;
58760;SDS011;44529;47.464;19.014;2022-08-11T17:52:00;2.67;;;1.30;;
58760;SDS011;44529;47.464;19.014;2022-08-11T17:55:22;2.65;;;1.55;;
58760;SDS011;44529;47.464;19.014;2022-08-11T17:58:54;5.43;;;1.15;;
58760;SDS011;44529;47.464;19.014;2022-08-11T18:02:24;2.40;;;0.93;;
58760;SDS011;44529;47.464;19.014;2022-08-11T18:05:48;6.03;;;1.40;;
58760;SDS011;44529;47.464;19.014;2022-08-11T18:08:52;2.70;;;1.00;;
58760;SDS011;44529;47.464;19.014;2022-08-11T18:12:14;3.17;;;1.33;;
58760;SDS011;44529;47.464;19.014;2022-08-11T18:15:37;4.15;;;1.33;;
58760;SDS011;44529;47.464;19.014;2022-08-11T18:19:01;6.20;;;1.23;;
58760;SDS011;44529;47.464;19.014;2022-08-11T18:22:22;9.10;;;1.25;;
58760;SDS011;44529;47.464;19.014;2022-08-11T18:25:46;2.85;;;1.60;;
58760;SDS011;44529;47.464;19.014;2022-08-11T18:29:08;3.95;;;1.77;;
58760;SDS011;44529;47.464;19.014;2022-08-11T18:32:31;1.17;;;1.10;;
58760;SDS011;44529;47.464;19.014;2022-08-11T18:36:16;4.40;;;1.50;;
58760;SDS011;44529;47.464;19.014;2022-08-11T18:39:43;5.30;;;1.40;;
58760;SDS011;44529;47.464;19.014;2022-08-11T18:43:08;2.72;;;1.35;;
58760;SDS011;44529;47.464;19.014;2022-08-11T18:46:32;4.45;;;1.33;;
58760;SDS011;44529;47.464;19.014;2022-08-11T18:49:57;2.87;;;1.25;;
58760;SDS011;44529;47.464;19.014;2022-08-11T18:53:38;2.25;;;1.15;;
58760;SDS011;44529;47.464;19.014;2022-08-11T18:57:02;1.40;;;1.30;;
58760;SDS011;44529;47.464;19.014;2022-08-11T19:00:27;4.62;;;1.30;;
58760;SDS011;44529;47.464;19.014;2022-08-11T19:03:49;4.93;;;1.33;;
58760;SDS011;44529;47.464;19.014;2022-08-11T19:07:20;3.90;;;1.50;;
58760;SDS011;44529;47.464;19.014;2022-08-11T19:10:42;3.95;;;1.23;;
58760;SDS011;44529;47.464;19.014;2022-08-11T19:14:05;5.90;;;1.58;;
58760;SDS011;44529;47.464;19.014;2022-08-11T19:17:29;5.62;;;1.27;;
58760;SDS011;44529;47.464;19.014;2022-08-11T19:20:53;5.25;;;1.50;;
58760;SDS011;44529;47.464;19.014;2022-08-11T19:24:15;2.75;;;1.27;;
58760;SDS011;44529;47.464;19.014;2022-08-11T19:27:37;2.05;;;1.25;;
58760;SDS011;44529;47.464;19.014;2022-08-11T19:30:59;2.28;;;1.10;;
58760;SDS011;44529;47.464;19.014;2022-08-11T19:34:22;5.22;;;1.30;;
58760;SDS011;44529;47.464;19.014;2022-08-11T19:37:44;1.67;;;1.15;;
58760;SDS011;44529;47.464;19.014;2022-08-11T19:41:07;2.78;;;1.23;;
58760;SDS011;44529;47.464;19.014;2022-08-11T19:44:48;2.00;;;1.20;;
58760;SDS011;44529;47.464;19.014;2022-08-11T19:48:10;2.78;;;1.50;;
58760;SDS011;44529;47.464;19.014;2022-08-11T19:51:34;2.08;;;1.35;;
58760;SDS011;44529;47.464;19.014;2022-08-11T19:54:57;2.50;;;1.33;;
58760;SDS011;44529;47.464;19.014;2022-08-11T19:58:18;4.93;;;1.30;;
58760;SDS011;44529;47.464;19.014;2022-08-11T20:01:39;1.30;;;1.20;;
58760;SDS011;44529;47.464;19.014;2022-08-11T20:05:15;7.07;;;1.40;;
58760;SDS011;44529;47.464;19.014;2022-08-11T20:08:36;2.28;;;1.12;;
58760;SDS011;44529;47.464;19.014;2022-08-11T20:12:01;3.95;;;1.62;;
58760;SDS011;44529;47.464;19.014;2022-08-11T20:15:25;1.83;;;1.20;;
58760;SDS011;44529;47.464;19.014;2022-08-11T20:18:48;2.87;;;1.30;;
58760;SDS011;44529;47.464;19.014;2022-08-11T20:22:10;2.50;;;1.45;;
58760;SDS011;44529;47.464;19.014;2022-08-11T20:25:33;3.70;;;1.27;;
58760;SDS011;44529;47.464;19.014;2022-08-11T20:29:05;2.12;;;1.05;;
58760;SDS011;44529;47.464;19.014;2022-08-11T20:32:28;7.32;;;1.52;;
58760;SDS011;44529;47.464;19.014;2022-08-11T20:35:49;2.03;;;1.35;;
58760;SDS011;44529;47.464;19.014;2022-08-11T20:39:11;4.55;;;1.52;;
58760;SDS011;44529;47.464;19.014;2022-08-11T20:42:34;6.12;;;1.50;;
58760;SDS011;44529;47.464;19.014;2022-08-11T20:45:56;5.18;;;1.23;;
58760;SDS011;44529;47.464;19.014;2022-08-11T20:49:20;5.40;;;1.40;;
58760;SDS011;44529;47.464;19.014;2022-08-11T20:52:54;1.80;;;1.00;;
58760;SDS011;44529;47.464;19.014;2022-08-11T20:56:18;3.58;;;1.73;;
58760;SDS011;44529;47.464;19.014;2022-08-11T20:59:41;5.78;;;1.20;;
58760;SDS011;44529;47.464;19.014;2022-08-11T21:03:04;3.72;;;1.42;;
58760;SDS011;44529;47.464;19.014;2022-08-11T21:06:37;5.22;;;1.12;;
58760;SDS011;44529;47.464;19.014;2022-08-11T21:10:00;2.05;;;1.12;;
58760;SDS011;44529;47.464;19.014;2022-08-11T21:13:29;2.50;;;1.37;;
58760;SDS011;44529;47.464;19.014;2022-08-11T21:16:53;2.97;;;1.58;;
58760;SDS011;44529;47.464;19.014;2022-08-11T21:20:29;3.58;;;1.33;;
58760;SDS011;44529;47.464;19.014;2022-08-11T21:23:53;3.12;;;1.17;;
58760;SDS011;44529;47.464;19.014;2022-08-11T21:27:16;1.10;;;1.08;;
58760;SDS011;44529;47.464;19.014;2022-08-11T21:30:40;1.73;;;1.20;;
58760;SDS011;44529;47.464;19.014;2022-08-11T21:34:02;0.93;;;0.90;;
58760;SDS011;44529;47.464;19.014;2022-08-11T21:37:24;3.95;;;1.10;;
58760;SDS011;44529;47.464;19.014;2022-08-11T21:40:51;1.17;;;1.10;;
58760;SDS011;44529;47.464;19.014;2022-08-11T21:44:13;0.90;;;0.90;;
58760;SDS011;44529;47.464;19.014;2022-08-11T21:47:36;2.37;;;1.12;;
58760;SDS011;44529;47.464;19.014;2022-08-11T21:51:02;3.40;;;1.10;;
58760;SDS011;44529;47.464;19.014;2022-08-11T21:54:24;2.35;;;1.23;;
58760;SDS011;44529;47.464;19.014;2022-08-11T21:57:45;2.75;;;1.40;;
58760;SDS011;44529;47.464;19.014;2022-08-11T22:01:08;2.90;;;1.00;;
58760;SDS011;44529;47.464;19.014;2022-08-11T22:04:35;3.03;;;0.93;;
58760;SDS011;44529;47.464;19.014;2022-08-11T22:07:56;7.57;;;1.25;;
58760;SDS011;44529;47.464;19.014;2022-08-11T22:11:17;1.85;;;1.05;;
58760;SDS011;44529;47.464;19.014;2022-08-11T22:14:39;1.60;;;1.00;;
58760;SDS011;44529;47.464;19.014;2022-08-11T22:18:01;2.20;;;0.90;;
58760;SDS011;44529;47.464;19.014;2022-08-11T22:21:22;2.90;;;1.00;;
58760;SDS011;44529;47.464;19.014;2022-08-11T22:25:04;1.25;;;0.90;;
58760;SDS011;44529;47.464;19.014;2022-08-11T22:28:39;1.48;;;0.93;;
58760;SDS011;44529;47.464;19.014;2022-08-11T22:32:00;1.55;;;0.82;;
58760;SDS011;44529;47.464;19.014;2022-08-11T22:35:21;4.90;;;1.00;;
58760;SDS011;44529;47.464;19.014;2022-08-11T22:38:44;0.95;;;0.75;;
58760;SDS011;44529;47.464;19.014;2022-08-11T22:42:06;3.42;;;1.10;;
58760;SDS011;44529;47.464;19.014;2022-08-11T22:45:34;1.83;;;0.80;;
58760;SDS011;44529;47.464;19.014;2022-08-11T22:48:55;1.20;;;0.90;;
58760;SDS011;44529;47.464;19.014;2022-08-11T22:52:17;1.33;;;1.10;;
58760;SDS011;44529;47.464;19.014;2022-08-11T22:55:41;1.45;;;0.82;;
58760;SDS011;44529;47.464;19.014;2022-08-11T22:59:02;1.20;;;0.90;;
58760;SDS011;44529;47.464;19.014;2022-08-11T23:02:26;1.30;;;1.20;;
58760;SDS011;44529;47.464;19.014;2022-08-11T23:05:49;1.75;;;1.15;;
58760;SDS011;44529;47.464;19.014;2022-08-11T23:09:10;1.83;;;1.00;;
58760;SDS011;44529;47.464;19.014;2022-08-11T23:12:31;5.45;;;1.02;;